Impacts METAR Board INFO
IDs:

KPIT - Pittsburgh Intl, PA, US

Updated at: 2327 UTC 17 Dec 2017
Potential Impact None Slight Moderate High
Time17/11Z 17/12Z 17/13Z 17/14Z 17/15Z 17/16Z 17/17Z 17/18Z 17/19Z 17/20Z 17/21Z 17/22Z 17/23Z
VIS10 10 10 10 10 10 10 10 10 10 10 8 6
CIG-- 250 220 200 200 150 150 150 130 100 75 49 44
CoverSCTBKNOVCOVCOVCOVCOVCOVCOVCOVCOVCOVCOVC
FltCatVFRVFRVFRVFRVFRVFRVFRVFRVFRVFRVFRVFRVFR
WX-----------------------RA-RA BR
WDir2402500000200210190190210200180
WSpd7 3 0 0 0 0 5 6 3 4 3 5 5
WGst-- -- -- -- -- -- -- -- -- -- -- -- --
Raw hourly METARs
KPIT 171051Z 24007KT 10SM SCT250 03/M03 A3017 RMK AO2 SLP232 T00281028
KPIT 171151Z 25003KT 10SM BKN250 03/M03 A3017 RMK AO2 SLP234 T00281028 10033 20022 53005
KPIT 171251Z 00000KT 10SM OVC220 02/M03 A3018 RMK AO2 SLP237 T00221028
KPIT 171351Z 00000KT 10SM OVC200 01/M02 A3018 RMK AO2 SLP241 T00111022
KPIT 171451Z 00000KT 10SM OVC200 02/M02 A3020 RMK AO2 SLP245 T00221017 53009
KPIT 171551Z 00000KT 10SM OVC150 04/M02 A3019 RMK AO2 SLP242 T00391017
KPIT 171651Z 20005KT 10SM OVC150 05/M02 A3016 RMK AO2 SLP231 T00501017
KPIT 171751Z 21006KT 10SM OVC150 06/M02 A3014 RMK AO2 SLP222 T00561017 10056 20006 58019
KPIT 171851Z 19003KT 10SM OVC130 06/M02 A3010 RMK AO2 SLP209 T00561017
KPIT 171951Z 19004KT 10SM FEW065 OVC100 06/M02 A3010 RMK AO2 SLP209 T00561017
KPIT 172051Z 21003KT 10SM OVC075 06/M01 A3013 RMK AO2 SLP219 T00561011 55003
KPIT 172151Z 20005KT 8SM -RA BKN049 OVC055 04/00 A3013 RMK AO2 RAB15 SLP219 P0001 T00440000
KPIT 172251Z 18005KT 6SM -RA BR FEW034 OVC044 03/02 A3012 RMK AO2 SLP215 P0005 T00330017